createdAt,value
2022-12-12T00:04:07.053Z,54.95
2022-12-12T00:09:09.534Z,55.36
2022-12-12T00:14:11.388Z,54.97
2022-12-12T00:19:14.539Z,55.04
2022-12-12T00:24:16.369Z,55.07
2022-12-12T00:29:18.261Z,54.51
2022-12-12T00:34:21.472Z,54.15
2022-12-12T00:39:23.821Z,54.11
2022-12-12T00:44:25.686Z,54.48
2022-12-12T00:49:28.896Z,54.49
2022-12-12T00:54:30.901Z,55.17
2022-12-12T00:59:32.758Z,55.14
2022-12-12T01:04:35.983Z,55.43
2022-12-12T01:09:37.914Z,54.82
2022-12-12T01:14:39.771Z,55.13
2022-12-12T01:19:43.071Z,55.08
2022-12-12T01:24:44.902Z,54.97
2022-12-12T01:29:46.654Z,54.50
2022-12-12T01:34:49.983Z,54.80
2022-12-12T01:39:52.044Z,55.03
2022-12-12T01:44:54.061Z,55.34
2022-12-12T01:49:58.681Z,55.78
2022-12-12T01:55:01.158Z,55.50
2022-12-12T02:00:05.024Z,54.97
2022-12-12T02:05:14.833Z,55.42
2022-12-12T02:10:16.672Z,54.68
2022-12-12T02:15:18.460Z,55.10
2022-12-12T02:20:35.970Z,55.21
2022-12-12T02:25:57.507Z,54.92
2022-12-12T02:31:13.406Z,54.80
2022-12-12T02:36:18.228Z,55.28
2022-12-12T02:41:26.344Z,54.67
2022-12-12T02:46:31.967Z,55.14
2022-12-12T02:51:33.828Z,56.53
2022-12-12T02:56:51.055Z,57.03
2022-12-12T03:02:06.776Z,56.78
2022-12-12T03:07:29.701Z,56.17
2022-12-12T03:12:35.061Z,56.12
2022-12-12T03:17:41.466Z,55.34
2022-12-12T03:22:44.860Z,54.88
2022-12-12T03:27:49.412Z,54.92
2022-12-12T03:32:54.154Z,55.20
2022-12-12T03:37:59.020Z,55.32
2022-12-12T03:43:02.708Z,55.78
2022-12-12T03:48:08.346Z,55.12
2022-12-12T03:53:11.598Z,54.33
2022-12-12T03:58:14.613Z,52.93
2022-12-12T04:03:21.448Z,52.97
2022-12-12T04:08:23.316Z,52.83
2022-12-12T04:13:32.076Z,53.88
2022-12-12T04:18:37.764Z,53.91
2022-12-12T04:23:43.324Z,53.98
2022-12-12T04:28:49.743Z,54.66
2022-12-12T04:33:53.965Z,54.16
2022-12-12T04:38:55.927Z,54.13
2022-12-12T04:43:57.690Z,53.93
2022-12-12T04:49:03.254Z,53.89
2022-12-12T04:54:07.778Z,53.94
2022-12-12T04:59:09.589Z,53.75
2022-12-12T05:04:16.496Z,53.90
2022-12-12T05:09:18.451Z,54.22
2022-12-12T05:14:20.362Z,54.36
2022-12-12T05:19:23.618Z,54.61
2022-12-12T05:24:31.311Z,54.80
2022-12-12T05:29:35.195Z,54.94
2022-12-12T05:34:38.443Z,54.49
2022-12-12T05:39:45.309Z,54.36
2022-12-12T05:44:48.035Z,54.41
2022-12-12T05:49:51.309Z,54.50
2022-12-12T05:54:53.373Z,54.96
2022-12-12T05:59:56.038Z,55.28
2022-12-12T06:04:59.497Z,54.83
2022-12-12T06:10:01.395Z,54.88
2022-12-12T06:15:03.418Z,55.14
2022-12-12T06:20:07.759Z,54.90
2022-12-12T06:25:09.602Z,56.21
2022-12-12T06:30:12.052Z,56.45
2022-12-12T06:35:16.314Z,56.94
2022-12-12T06:40:18.220Z,56.53
2022-12-12T06:45:19.987Z,56.54
2022-12-12T06:50:24.033Z,56.01
2022-12-12T06:55:25.911Z,56.43
2022-12-12T07:00:27.660Z,56.11
2022-12-12T07:05:30.865Z,56.24
2022-12-12T07:10:35.274Z,56.24
2022-12-12T07:15:42.160Z,55.47
2022-12-12T07:20:46.135Z,55.44
2022-12-12T07:25:47.906Z,55.05
2022-12-12T07:30:49.802Z,55.01
2022-12-12T07:35:57.648Z,54.92
2022-12-12T07:41:02.959Z,54.68
2022-12-12T07:46:06.074Z,54.46
2022-12-12T07:51:09.432Z,54.24
2022-12-12T07:56:12.182Z,53.54
2022-12-12T08:01:15.565Z,53.29
2022-12-12T08:06:18.745Z,52.82
2022-12-12T08:11:21.509Z,52.82
2022-12-12T08:16:24.998Z,52.49
2022-12-12T08:21:28.247Z,52.54
2022-12-12T08:26:30.488Z,53.01
2022-12-12T08:31:32.533Z,52.24
2022-12-12T08:36:36.148Z,51.07
2022-12-12T08:41:39.517Z,51.02
2022-12-12T08:46:41.625Z,51.44
2022-12-12T08:51:45.000Z,51.54
2022-12-12T08:56:46.770Z,51.69
2022-12-12T09:01:48.627Z,51.34
2022-12-12T09:06:54.981Z,51.17
2022-12-12T09:11:56.829Z,51.11
2022-12-12T09:16:58.798Z,51.13
2022-12-12T09:22:02.699Z,51.19
2022-12-12T09:27:04.493Z,48.29
2022-12-12T09:32:06.685Z,47.51
2022-12-12T09:37:09.969Z,47.02
2022-12-12T09:42:12.344Z,46.15
2022-12-12T09:47:16.939Z,45.30
2022-12-12T09:52:27.717Z,45.64
2022-12-12T09:57:34.622Z,45.97
2022-12-12T10:02:42.374Z,45.56
2022-12-12T10:07:47.588Z,45.09
2022-12-12T10:12:49.567Z,45.02
2022-12-12T10:17:51.334Z,44.26
2022-12-12T10:22:57.430Z,45.91
2022-12-12T10:28:04.738Z,48.64
2022-12-12T10:33:13.846Z,49.61
2022-12-12T10:38:31.355Z,50.01
2022-12-12T10:43:35.368Z,50.04
2022-12-12T10:48:37.501Z,50.82
2022-12-12T10:53:40.843Z,50.64
2022-12-12T10:58:43.591Z,50.99
2022-12-12T11:03:46.712Z,51.15
2022-12-12T11:08:57.206Z,50.93
2022-12-12T11:14:00.331Z,50.87
2022-12-12T11:19:07.392Z,50.93
2022-12-12T11:24:13.452Z,50.87
2022-12-12T11:29:34.835Z,51.05
2022-12-12T11:34:36.552Z,50.50
2022-12-12T11:39:41.622Z,50.79
2022-12-12T11:44:43.884Z,51.53
2022-12-12T11:49:46.122Z,51.15
2022-12-12T11:54:49.357Z,51.33
2022-12-12T12:00:09.493Z,51.54
2022-12-12T12:05:17.903Z,52.41
2022-12-12T12:10:24.699Z,51.74
2022-12-12T12:15:33.658Z,51.98
2022-12-12T12:20:43.156Z,51.94
2022-12-12T12:25:49.591Z,51.85
2022-12-12T12:30:54.287Z,51.81
2022-12-12T12:36:00.476Z,51.61
2022-12-12T12:41:24.544Z,52.07
2022-12-12T12:46:32.244Z,52.79
2022-12-12T12:51:35.188Z,52.97
2022-12-12T12:56:43.739Z,53.31
2022-12-12T13:01:47.181Z,53.17
2022-12-12T13:06:50.659Z,52.90
2022-12-12T13:11:55.829Z,52.25
2022-12-12T13:17:03.988Z,51.99
2022-12-12T13:22:07.869Z,52.41
2022-12-12T13:27:13.084Z,51.59
2022-12-12T13:32:49.216Z,51.78
2022-12-12T13:37:51.953Z,51.38
2022-12-12T13:42:59.884Z,51.24
2022-12-12T13:48:05.932Z,51.50
2022-12-12T13:53:25.743Z,51.42
2022-12-12T13:58:35.104Z,51.84
2022-12-12T14:03:36.788Z,51.72
2022-12-12T14:08:39.341Z,52.02
2022-12-12T14:13:45.163Z,51.61
2022-12-12T14:18:58.233Z,51.84
2022-12-12T14:23:59.971Z,52.63
2022-12-12T14:29:27.327Z,52.11
2022-12-12T14:34:29.469Z,52.67
2022-12-12T14:39:59.578Z,53.37
2022-12-12T14:45:02.687Z,53.51
2022-12-12T14:50:08.318Z,53.63
2022-12-12T14:55:14.038Z,53.16
2022-12-12T15:00:19.194Z,53.31
2022-12-12T15:05:20.956Z,52.84
2022-12-12T15:10:23.380Z,53.87
2022-12-12T15:15:27.689Z,54.06
2022-12-12T15:20:30.242Z,53.94
2022-12-12T15:25:33.461Z,53.58
2022-12-12T15:30:37.969Z,53.57
2022-12-12T15:35:40.936Z,54.12
2022-12-12T15:40:43.594Z,53.81
2022-12-12T15:45:51.260Z,54.22
2022-12-12T15:50:57.046Z,54.42
2022-12-12T15:56:00.435Z,55.01
2022-12-12T16:01:08.367Z,55.23
2022-12-12T16:06:23.179Z,55.40
2022-12-12T16:11:39.698Z,55.01
2022-12-12T16:16:45.124Z,54.33
2022-12-12T16:21:46.978Z,54.34
2022-12-12T16:26:48.793Z,54.85
2022-12-12T16:31:51.939Z,55.01
2022-12-12T16:36:54.063Z,55.57
2022-12-12T16:41:55.851Z,55.70
2022-12-12T16:46:58.941Z,55.03
2022-12-12T16:52:00.973Z,54.01
2022-12-12T16:57:02.836Z,53.93
2022-12-12T17:02:09.433Z,54.04
2022-12-12T17:07:11.239Z,54.14
2022-12-12T17:12:13.417Z,54.33
2022-12-12T17:17:16.602Z,53.95
2022-12-12T17:22:18.452Z,54.02
2022-12-12T17:27:20.369Z,54.29
2022-12-12T17:32:24.621Z,53.88
2022-12-12T17:37:26.513Z,53.00
2022-12-12T17:42:29.729Z,53.18
2022-12-12T17:47:32.874Z,52.73
2022-12-12T17:52:34.996Z,52.97
2022-12-12T17:57:37.034Z,52.41
2022-12-12T18:02:40.348Z,52.29
2022-12-12T18:07:42.248Z,51.70
2022-12-12T18:12:49.846Z,51.86
2022-12-12T18:17:54.705Z,52.87
2022-12-12T18:22:56.566Z,53.32
2022-12-12T18:27:58.724Z,52.82
2022-12-12T18:33:03.246Z,53.64
2022-12-12T18:38:05.221Z,53.48
2022-12-12T18:43:07.366Z,53.06
2022-12-12T18:48:10.521Z,53.12
2022-12-12T18:53:12.435Z,53.61
2022-12-12T18:58:14.268Z,53.73
2022-12-12T19:03:17.468Z,53.29
2022-12-12T19:08:20.221Z,53.22
2022-12-12T19:13:22.077Z,52.04
2022-12-12T19:18:25.147Z,52.80
2022-12-12T19:23:26.882Z,53.50
2022-12-12T19:28:28.650Z,53.43
2022-12-12T19:33:32.140Z,53.88
2022-12-12T19:38:33.951Z,53.19
2022-12-12T19:43:35.738Z,52.49
2022-12-12T19:48:38.919Z,52.62
2022-12-12T19:53:41.749Z,53.23
2022-12-12T19:58:43.649Z,52.69
2022-12-12T20:03:49.758Z,52.49
2022-12-12T20:08:51.710Z,52.73
2022-12-12T20:13:54.338Z,53.23
2022-12-12T20:18:59.191Z,53.54
2022-12-12T20:24:00.917Z,52.96
2022-12-12T20:29:03.154Z,52.95
2022-12-12T20:34:06.281Z,52.65
2022-12-12T20:39:08.664Z,52.44
2022-12-12T20:44:11.001Z,53.81
2022-12-12T20:49:15.771Z,53.65
2022-12-12T20:54:19.956Z,53.64
2022-12-12T20:59:21.769Z,53.14
2022-12-12T21:04:25.000Z,52.47
2022-12-12T21:09:27.105Z,53.18
2022-12-12T21:14:30.849Z,52.65
2022-12-12T21:19:34.621Z,51.74
2022-12-12T21:24:36.418Z,52.01
2022-12-12T21:29:38.230Z,53.57
2022-12-12T21:34:41.547Z,52.79
2022-12-12T21:39:45.422Z,53.70
2022-12-12T21:44:47.236Z,53.65
2022-12-12T21:49:50.336Z,53.78
2022-12-12T21:54:52.123Z,54.06
2022-12-12T21:59:53.957Z,53.94
2022-12-12T22:04:58.239Z,53.74
2022-12-12T22:10:10.823Z,53.58
2022-12-12T22:15:13.754Z,53.50
2022-12-12T22:20:17.173Z,52.46
2022-12-12T22:25:19.105Z,52.00
2022-12-12T22:30:21.433Z,52.24
2022-12-12T22:35:26.646Z,52.20
2022-12-12T22:40:28.624Z,52.63
2022-12-12T22:45:34.318Z,52.50
2022-12-12T22:50:37.665Z,52.90
2022-12-12T22:55:39.626Z,52.38
2022-12-12T23:00:41.645Z,52.09
2022-12-12T23:05:45.744Z,53.34
2022-12-12T23:10:47.545Z,52.25
2022-12-12T23:15:49.826Z,51.62
2022-12-12T23:20:52.976Z,51.89
2022-12-12T23:25:54.901Z,51.37
2022-12-12T23:30:56.854Z,52.88
2022-12-12T23:36:00.036Z,52.84
2022-12-12T23:41:02.983Z,52.66
2022-12-12T23:46:06.035Z,52.87
2022-12-12T23:51:09.178Z,53.34
2022-12-12T23:56:11.058Z,52.74
